createdAt,value
2023-03-26T00:02:57.707Z,1782.00
2023-03-26T00:06:57.773Z,1783.00
2023-03-26T00:10:59.024Z,1782.00
2023-03-26T00:14:58.001Z,1765.00
2023-03-26T00:18:58.114Z,1774.00
2023-03-26T00:22:58.220Z,1758.00
2023-03-26T00:26:58.357Z,1758.00
2023-03-26T00:30:58.907Z,1745.00
2023-03-26T00:34:58.527Z,1746.00
2023-03-26T00:38:58.685Z,1746.00
2023-03-26T00:42:58.778Z,1750.00
2023-03-26T00:46:58.908Z,1753.00
2023-03-26T00:50:59.029Z,1743.00
2023-03-26T00:54:59.235Z,1734.00
2023-03-26T00:58:59.303Z,1738.00
2023-03-26T01:02:59.642Z,1732.00
2023-03-26T01:06:59.568Z,1732.00
2023-03-26T01:10:59.776Z,1731.00
2023-03-26T01:14:59.943Z,1727.00
2023-03-26T01:19:00.144Z,1731.00
2023-03-26T01:23:00.177Z,1721.00
2023-03-26T01:27:00.316Z,1718.00
2023-03-26T01:31:00.513Z,1710.00
2023-03-26T01:35:00.701Z,1701.00
2023-03-26T01:39:00.925Z,1697.00
2023-03-26T01:43:00.935Z,1697.00
2023-03-26T01:47:01.253Z,1701.00
2023-03-26T01:51:01.268Z,1684.00
2023-03-26T01:55:01.416Z,1677.00
2023-03-26T01:59:01.555Z,1682.00
2023-03-26T02:03:01.881Z,1679.00
2023-03-26T02:07:01.972Z,1661.00
2023-03-26T02:11:02.089Z,1664.00
2023-03-26T02:15:02.241Z,1659.00
2023-03-26T02:19:02.477Z,1664.00
2023-03-26T02:23:02.628Z,1656.00
2023-03-26T02:27:02.821Z,1660.00
2023-03-26T02:31:02.979Z,1637.00
2023-03-26T02:35:03.183Z,1655.00
2023-03-26T02:39:03.367Z,1648.00
2023-03-26T02:43:03.582Z,1649.00
2023-03-26T02:47:03.796Z,1630.00
2023-03-26T02:51:03.939Z,1646.00
2023-03-26T02:55:04.148Z,1631.00
2023-03-26T02:59:04.289Z,1621.00
2023-03-26T03:03:04.617Z,1621.00
2023-03-26T03:07:04.708Z,1622.00
2023-03-26T03:11:04.987Z,1613.00
2023-03-26T03:15:05.155Z,1614.00
2023-03-26T03:19:05.355Z,1624.00
2023-03-26T03:23:05.535Z,1597.00
2023-03-26T03:27:05.824Z,1602.00
2023-03-26T03:31:06.071Z,1601.00
2023-03-26T03:35:06.172Z,1605.00
2023-03-26T03:39:06.401Z,1595.00
2023-03-26T03:43:06.666Z,1586.00
2023-03-26T03:47:06.583Z,1588.00
2023-03-26T03:51:06.563Z,1587.00
2023-03-26T03:55:06.523Z,1571.00
2023-03-26T03:59:06.471Z,1577.00
2023-03-26T04:03:06.692Z,1585.00
2023-03-26T04:07:06.407Z,1577.00
2023-03-26T04:11:06.427Z,1559.00
2023-03-26T04:15:06.301Z,1556.00
2023-03-26T04:19:06.303Z,1558.00
2023-03-26T04:23:06.302Z,1553.00
2023-03-26T04:27:06.988Z,1540.00
2023-03-26T04:31:06.231Z,1557.00
2023-03-26T04:35:06.172Z,1557.00
2023-03-26T04:39:06.304Z,1552.00
2023-03-26T04:43:06.113Z,1531.00
2023-03-26T04:47:06.047Z,1532.00
2023-03-26T04:51:06.072Z,1533.00
2023-03-26T04:55:06.275Z,1530.00
2023-03-26T04:59:06.278Z,1523.00
2023-03-26T05:03:06.264Z,1518.00
2023-03-26T05:07:06.200Z,1521.00
2023-03-26T05:11:06.097Z,1503.00
2023-03-26T05:15:06.042Z,1501.00
2023-03-26T05:19:06.030Z,1511.00
2023-03-26T05:23:05.953Z,1490.00
2023-03-26T05:27:05.947Z,1499.00
2023-03-26T05:31:05.947Z,1492.00
2023-03-26T05:35:05.874Z,1476.00
2023-03-26T05:39:05.853Z,1483.00
2023-03-26T05:43:05.812Z,1486.00
2023-03-26T05:47:05.754Z,1487.00
2023-03-26T05:51:05.717Z,1468.00
2023-03-26T05:55:05.784Z,1472.00
2023-03-26T05:59:05.843Z,1459.00
2023-03-26T06:03:06.071Z,1465.00
2023-03-26T06:07:06.091Z,1461.00
2023-03-26T06:11:06.213Z,1452.00
2023-03-26T06:15:06.393Z,1452.00
2023-03-26T06:19:06.622Z,1449.00
2023-03-26T06:23:06.499Z,1447.00
2023-03-26T06:27:06.472Z,1443.00
2023-03-26T06:31:06.456Z,1423.00
2023-03-26T06:35:06.429Z,1433.00
2023-03-26T06:39:07.812Z,1436.00
2023-03-26T06:43:08.643Z,1435.00
2023-03-26T06:47:06.275Z,1441.00
2023-03-26T06:51:06.551Z,1429.00
2023-03-26T06:55:06.227Z,1435.00
2023-03-26T06:59:06.189Z,1421.00
2023-03-26T07:03:06.266Z,1418.00
2023-03-26T07:07:06.184Z,1424.00
2023-03-26T07:11:06.258Z,1421.00
2023-03-26T07:15:06.095Z,1406.00
2023-03-26T07:19:06.070Z,1404.00
2023-03-26T07:23:06.033Z,1399.00
2023-03-26T07:27:05.946Z,1400.00
2023-03-26T07:31:05.940Z,1403.00
2023-03-26T07:35:05.907Z,1387.00
2023-03-26T07:39:05.890Z,1387.00
2023-03-26T07:43:05.873Z,1397.00
2023-03-26T07:47:05.823Z,1387.00
2023-03-26T07:51:05.766Z,1393.00
2023-03-26T07:55:06.048Z,1391.00
2023-03-26T07:59:05.785Z,1383.00
2023-03-26T08:03:05.927Z,1385.00
2023-03-26T08:07:05.875Z,1374.00
2023-03-26T08:11:05.958Z,1375.00
2023-03-26T08:15:05.999Z,1376.00
2023-03-26T08:19:05.963Z,1377.00
2023-03-26T08:23:05.935Z,1361.00
2023-03-26T08:27:05.960Z,1363.00
2023-03-26T08:31:06.122Z,1360.00
2023-03-26T08:35:05.920Z,1359.00
2023-03-26T08:39:05.936Z,1350.00
2023-03-26T08:43:05.966Z,1343.00
2023-03-26T08:47:06.048Z,1344.00
2023-03-26T08:51:06.265Z,1342.00
2023-03-26T08:55:06.236Z,1345.00
2023-03-26T08:59:06.167Z,1340.00
2023-03-26T09:03:06.173Z,1325.00
2023-03-26T09:07:06.066Z,1328.00
2023-03-26T09:11:06.049Z,1325.00
2023-03-26T09:15:06.085Z,1322.00
2023-03-26T09:19:06.009Z,1320.00
2023-03-26T09:23:05.978Z,1320.00
2023-03-26T09:27:05.907Z,1312.00
2023-03-26T09:31:06.078Z,1308.00
2023-03-26T09:35:05.963Z,1309.00
2023-03-26T09:39:05.952Z,1303.00
2023-03-26T09:43:05.944Z,1300.00
2023-03-26T09:47:05.873Z,1292.00
2023-03-26T09:51:05.812Z,1300.00
2023-03-26T09:55:05.756Z,1299.00
2023-03-26T09:59:05.825Z,1292.00
2023-03-26T10:03:05.790Z,1301.00
2023-03-26T10:07:05.717Z,1296.00
2023-03-26T10:11:05.632Z,1289.00
2023-03-26T10:15:05.633Z,1292.00
2023-03-26T10:19:05.648Z,1291.00
2023-03-26T10:23:05.570Z,1292.00
2023-03-26T10:27:10.192Z,1293.00
2023-03-26T10:31:06.709Z,1290.00
2023-03-26T10:35:05.620Z,1288.00
2023-03-26T10:39:05.577Z,1288.00
2023-03-26T10:43:05.658Z,1281.00
2023-03-26T10:47:05.785Z,1276.00
2023-03-26T10:51:05.922Z,1272.00
2023-03-26T10:55:06.043Z,1263.00
2023-03-26T10:59:06.114Z,1266.00
2023-03-26T11:03:06.312Z,1264.00
2023-03-26T11:07:06.332Z,1264.00
2023-03-26T11:11:06.479Z,1271.00
2023-03-26T11:15:06.440Z,1266.00
2023-03-26T11:19:06.503Z,1286.00
2023-03-26T11:23:06.538Z,1289.00
2023-03-26T11:27:15.306Z,1292.00
2023-03-26T11:31:07.478Z,1306.00
2023-03-26T11:35:06.453Z,1308.00
2023-03-26T11:39:06.451Z,1300.00
2023-03-26T11:43:06.383Z,1299.00
2023-03-26T11:47:06.365Z,1308.00
2023-03-26T11:51:06.355Z,1297.00
2023-03-26T11:55:06.309Z,1286.00
2023-03-26T11:59:06.393Z,1280.00
2023-03-26T12:03:06.400Z,1274.00
2023-03-26T12:07:06.422Z,1298.00
2023-03-26T12:11:06.553Z,1294.00
2023-03-26T12:15:06.624Z,1292.00
2023-03-26T12:19:06.601Z,1291.00
2023-03-26T12:23:06.656Z,1285.00
2023-03-26T12:27:06.580Z,1279.00
2023-03-26T12:31:06.663Z,1269.00
2023-03-26T12:35:06.625Z,1260.00
2023-03-26T12:39:16.954Z,1256.00
2023-03-26T12:44:49.409Z,1260.00
2023-03-26T12:47:57.090Z,1257.00
2023-03-26T12:51:07.657Z,1262.00
2023-03-26T12:55:11.839Z,1251.00
2023-03-26T12:59:07.429Z,1250.00
2023-03-26T13:03:06.541Z,1241.00
2023-03-26T13:07:06.358Z,1223.00
2023-03-26T13:11:06.360Z,1222.00
2023-03-26T13:15:06.366Z,1218.00
2023-03-26T13:19:06.491Z,1209.00
2023-03-26T13:23:06.632Z,1196.00
2023-03-26T13:27:06.760Z,1186.00
2023-03-26T13:31:06.902Z,1181.00
2023-03-26T13:35:07.056Z,1163.00
2023-03-26T13:39:07.180Z,1159.00
2023-03-26T13:43:07.388Z,1146.00
2023-03-26T13:47:07.533Z,1142.00
2023-03-26T13:51:07.749Z,1151.00
2023-03-26T13:55:07.909Z,1139.00
2023-03-26T13:59:08.102Z,1135.00
2023-03-26T14:03:08.357Z,1136.00
2023-03-26T14:07:08.568Z,1132.00
2023-03-26T14:11:08.810Z,1129.00
2023-03-26T14:15:08.968Z,1127.00
2023-03-26T14:19:08.944Z,1124.00
2023-03-26T14:23:08.890Z,1110.00
2023-03-26T14:27:08.839Z,1114.00
2023-03-26T14:31:08.838Z,1124.00
2023-03-26T14:35:08.757Z,1110.00
2023-03-26T14:39:08.770Z,1117.00
2023-03-26T14:43:08.755Z,1109.00
2023-03-26T14:47:08.797Z,1111.00
2023-03-26T14:51:08.599Z,1112.00
2023-03-26T14:55:08.795Z,1098.00
2023-03-26T14:59:09.002Z,1097.00
2023-03-26T15:03:09.215Z,1099.00
2023-03-26T15:07:09.379Z,1097.00
2023-03-26T15:11:09.464Z,1094.00
2023-03-26T15:15:09.464Z,1091.00
2023-03-26T15:19:09.512Z,1091.00
2023-03-26T15:23:09.356Z,1092.00
2023-03-26T15:27:09.357Z,1092.00
2023-03-26T15:31:09.340Z,1084.00
2023-03-26T15:35:09.279Z,1084.00
2023-03-26T15:39:09.290Z,1078.00
2023-03-26T15:43:09.331Z,1083.00
2023-03-26T15:47:09.267Z,1078.00
2023-03-26T15:51:09.301Z,1078.00
2023-03-26T15:55:09.289Z,1073.00
2023-03-26T15:59:09.331Z,1081.00
2023-03-26T16:03:09.436Z,1077.00
2023-03-26T16:07:09.456Z,1088.00
2023-03-26T16:11:09.397Z,1068.00
2023-03-26T16:15:09.543Z,1074.00
2023-03-26T16:19:09.430Z,1073.00
2023-03-26T16:23:09.482Z,1080.00
2023-03-26T16:27:09.554Z,1078.00
2023-03-26T16:31:23.583Z,1083.00
2023-03-26T16:35:10.584Z,1071.00
2023-03-26T16:39:09.582Z,1075.00
2023-03-26T16:43:09.511Z,1072.00
2023-03-26T16:47:09.452Z,1071.00
2023-03-26T16:51:09.403Z,1067.00
2023-03-26T16:55:09.588Z,1072.00
2023-03-26T16:59:09.634Z,1065.00
2023-03-26T17:03:09.843Z,1074.00
2023-03-26T17:07:09.797Z,1068.00
2023-03-26T17:11:09.879Z,1065.00
2023-03-26T17:15:09.930Z,1056.00
2023-03-26T17:19:10.060Z,1062.00
2023-03-26T17:23:10.195Z,1062.00
2023-03-26T17:27:10.267Z,1061.00
2023-03-26T17:31:10.427Z,1052.00
2023-03-26T17:35:11.512Z,1061.00
2023-03-26T17:39:10.647Z,1068.00
2023-03-26T17:43:10.849Z,1065.00
2023-03-26T17:47:10.973Z,1055.00
2023-03-26T17:51:11.115Z,1063.00
2023-03-26T17:55:11.232Z,1064.00
2023-03-26T17:59:12.471Z,1060.00
2023-03-26T18:03:11.611Z,1057.00
2023-03-26T18:07:11.723Z,1074.00
2023-03-26T18:11:11.880Z,1064.00
2023-03-26T18:15:12.068Z,1065.00
2023-03-26T18:19:12.240Z,1061.00
2023-03-26T18:23:12.457Z,1058.00
2023-03-26T18:27:12.825Z,1059.00
2023-03-26T18:31:12.857Z,1056.00
2023-03-26T18:35:13.082Z,1059.00
2023-03-26T18:39:13.089Z,1068.00
2023-03-26T18:43:19.411Z,1063.00
2023-03-26T18:47:13.969Z,1051.00
2023-03-26T18:51:12.959Z,1059.00
2023-03-26T18:55:13.192Z,1061.00
2023-03-26T18:59:13.111Z,1065.00
2023-03-26T19:03:13.082Z,1075.00
2023-03-26T19:07:12.955Z,1066.00
2023-03-26T19:11:12.955Z,1069.00
2023-03-26T19:15:12.926Z,1055.00
2023-03-26T19:19:12.945Z,1060.00
2023-03-26T19:23:12.855Z,1063.00
2023-03-26T19:27:12.794Z,1058.00
2023-03-26T19:31:12.799Z,1069.00
2023-03-26T19:35:12.906Z,1062.00
2023-03-26T19:39:12.922Z,1063.00
2023-03-26T19:43:12.901Z,1061.00
2023-03-26T19:47:12.846Z,1057.00
2023-03-26T19:51:12.832Z,1067.00
2023-03-26T19:55:12.752Z,1060.00
2023-03-26T19:59:12.705Z,1067.00
2023-03-26T20:03:12.747Z,1056.00
2023-03-26T20:07:12.654Z,1067.00
2023-03-26T20:11:12.593Z,1057.00
2023-03-26T20:15:19.385Z,1065.00
2023-03-26T20:19:13.640Z,1057.00
2023-03-26T20:23:12.581Z,1063.00
2023-03-26T20:27:12.672Z,1076.00
2023-03-26T20:31:12.888Z,1068.00
2023-03-26T20:35:12.930Z,1055.00
2023-03-26T20:39:12.912Z,1058.00
2023-03-26T20:43:12.943Z,1067.00
2023-03-26T20:47:12.976Z,1055.00
2023-03-26T20:51:13.079Z,1054.00
2023-03-26T20:55:12.925Z,1047.00
2023-03-26T20:59:13.031Z,1051.00
2023-03-26T21:03:13.012Z,1050.00
2023-03-26T21:07:18.215Z,1062.00
2023-03-26T21:11:13.908Z,1057.00
2023-03-26T21:15:22.816Z,1067.00
2023-03-26T21:19:13.831Z,1064.00
2023-03-26T21:23:12.821Z,1063.00
2023-03-26T21:27:12.767Z,1052.00
2023-03-26T21:31:12.799Z,1053.00
2023-03-26T21:35:12.786Z,1044.00
2023-03-26T21:39:12.663Z,1056.00
2023-03-26T21:43:12.631Z,1056.00
2023-03-26T21:47:12.665Z,1059.00
2023-03-26T21:51:12.570Z,1052.00
2023-03-26T21:55:12.543Z,1052.00
2023-03-26T21:59:12.522Z,1041.00
2023-03-26T22:03:12.505Z,1053.00
2023-03-26T22:07:12.424Z,1041.00
2023-03-26T22:11:12.425Z,1044.00
2023-03-26T22:15:12.361Z,1045.00
2023-03-26T22:19:12.286Z,1047.00
2023-03-26T22:23:12.270Z,1036.00
2023-03-26T22:27:12.250Z,1047.00
2023-03-26T22:31:12.288Z,1037.00
2023-03-26T22:35:12.116Z,1050.00
2023-03-26T22:39:12.145Z,1039.00
2023-03-26T22:43:12.122Z,1045.00
2023-03-26T22:50:57.308Z,500.00
2023-03-26T22:54:56.919Z,502.00
2023-03-26T22:58:56.854Z,507.00
2023-03-26T23:02:56.956Z,504.00
2023-03-26T23:06:56.853Z,501.00
2023-03-26T23:10:56.929Z,506.00
2023-03-26T23:14:56.761Z,505.00
2023-03-26T23:18:56.730Z,510.00
2023-03-26T23:22:56.643Z,504.00
2023-03-26T23:26:56.633Z,507.00
2023-03-26T23:30:56.758Z,511.00
2023-03-26T23:34:56.591Z,503.00
2023-03-26T23:38:56.559Z,504.00
2023-03-26T23:42:56.474Z,506.00
2023-03-26T23:46:56.511Z,510.00
2023-03-26T23:51:03.170Z,506.00
2023-03-26T23:54:57.450Z,509.00
2023-03-26T23:58:56.332Z,511.00
